sensor_id;sensor_type;location;lat;lon;timestamp;temperature;humidity
9209;DHT22;4639;48.862;9.188;2023-01-24T00:00:30;3.90;99.90
9209;DHT22;4639;48.862;9.188;2023-01-24T00:02:56;3.80;99.90
9209;DHT22;4639;48.862;9.188;2023-01-24T00:05:21;3.90;99.90
9209;DHT22;4639;48.862;9.188;2023-01-24T00:07:47;3.90;99.90
9209;DHT22;4639;48.862;9.188;2023-01-24T00:10:13;3.90;99.90
9209;DHT22;4639;48.862;9.188;2023-01-24T00:12:38;3.90;99.90
9209;DHT22;4639;48.862;9.188;2023-01-24T00:15:05;3.90;99.90
9209;DHT22;4639;48.862;9.188;2023-01-24T00:17:31;3.90;99.90
9209;DHT22;4639;48.862;9.188;2023-01-24T00:19:56;3.80;99.90
9209;DHT22;4639;48.862;9.188;2023-01-24T00:22:22;3.80;99.90
9209;DHT22;4639;48.862;9.188;2023-01-24T00:24:48;3.80;99.90
9209;DHT22;4639;48.862;9.188;2023-01-24T00:27:14;3.80;99.90
9209;DHT22;4639;48.862;9.188;2023-01-24T00:29:40;3.80;99.90
9209;DHT22;4639;48.862;9.188;2023-01-24T00:32:05;3.90;99.90
9209;DHT22;4639;48.862;9.188;2023-01-24T00:34:31;3.90;99.90
9209;DHT22;4639;48.862;9.188;2023-01-24T00:36:56;3.90;99.90
9209;DHT22;4639;48.862;9.188;2023-01-24T00:39:22;3.90;99.90
9209;DHT22;4639;48.862;9.188;2023-01-24T00:41:47;3.90;99.90
9209;DHT22;4639;48.862;9.188;2023-01-24T00:44:13;3.90;99.90
9209;DHT22;4639;48.862;9.188;2023-01-24T00:46:39;3.90;99.90
9209;DHT22;4639;48.862;9.188;2023-01-24T00:49:05;3.80;99.90
9209;DHT22;4639;48.862;9.188;2023-01-24T00:51:30;3.80;99.90
9209;DHT22;4639;48.862;9.188;2023-01-24T00:53:58;3.70;99.90
9209;DHT22;4639;48.862;9.188;2023-01-24T00:56:24;3.80;99.90
9209;DHT22;4639;48.862;9.188;2023-01-24T00:58:49;3.90;99.90
9209;DHT22;4639;48.862;9.188;2023-01-24T01:01:15;4.00;99.90
9209;DHT22;4639;48.862;9.188;2023-01-24T01:03:41;4.00;99.90
9209;DHT22;4639;48.862;9.188;2023-01-24T01:06:11;3.90;99.90
9209;DHT22;4639;48.862;9.188;2023-01-24T01:08:37;3.90;99.90
9209;DHT22;4639;48.862;9.188;2023-01-24T01:11:03;3.80;99.90
9209;DHT22;4639;48.862;9.188;2023-01-24T01:13:29;3.80;99.90
9209;DHT22;4639;48.862;9.188;2023-01-24T01:16:02;3.80;99.90
9209;DHT22;4639;48.862;9.188;2023-01-24T01:18:28;3.90;99.90
9209;DHT22;4639;48.862;9.188;2023-01-24T01:20:54;3.80;99.90
9209;DHT22;4639;48.862;9.188;2023-01-24T01:23:22;3.80;99.90
9209;DHT22;4639;48.862;9.188;2023-01-24T01:25:48;3.80;99.90
9209;DHT22;4639;48.862;9.188;2023-01-24T01:28:13;3.80;99.90
9209;DHT22;4639;48.862;9.188;2023-01-24T01:30:39;3.80;99.90
9209;DHT22;4639;48.862;9.188;2023-01-24T01:33:04;3.80;99.90
9209;DHT22;4639;48.862;9.188;2023-01-24T01:35:30;3.80;99.90
9209;DHT22;4639;48.862;9.188;2023-01-24T01:37:58;3.80;99.90
9209;DHT22;4639;48.862;9.188;2023-01-24T01:40:23;3.80;99.90
9209;DHT22;4639;48.862;9.188;2023-01-24T01:45:44;3.80;99.90
9209;DHT22;4639;48.862;9.188;2023-01-24T01:51:01;3.80;99.90
9209;DHT22;4639;48.862;9.188;2023-01-24T01:53:31;3.80;99.90
9209;DHT22;4639;48.862;9.188;2023-01-24T01:56:11;3.80;99.90
9209;DHT22;4639;48.862;9.188;2023-01-24T01:58:38;3.70;99.90
9209;DHT22;4639;48.862;9.188;2023-01-24T02:01:05;3.80;99.90
9209;DHT22;4639;48.862;9.188;2023-01-24T02:03:39;3.80;99.90
9209;DHT22;4639;48.862;9.188;2023-01-24T02:06:15;3.70;99.90
9209;DHT22;4639;48.862;9.188;2023-01-24T02:08:47;3.70;99.90
9209;DHT22;4639;48.862;9.188;2023-01-24T02:11:14;3.70;99.90
9209;DHT22;4639;48.862;9.188;2023-01-24T02:13:59;3.70;99.90
9209;DHT22;4639;48.862;9.188;2023-01-24T02:16:44;3.70;99.90
9209;DHT22;4639;48.862;9.188;2023-01-24T02:21:55;3.70;99.90
9209;DHT22;4639;48.862;9.188;2023-01-24T02:24:28;3.80;99.90
9209;DHT22;4639;48.862;9.188;2023-01-24T02:26:55;3.80;99.90
9209;DHT22;4639;48.862;9.188;2023-01-24T02:29:21;3.90;99.90
9209;DHT22;4639;48.862;9.188;2023-01-24T02:31:58;3.90;99.90
9209;DHT22;4639;48.862;9.188;2023-01-24T02:34:25;3.60;99.90
9209;DHT22;4639;48.862;9.188;2023-01-24T02:36:55;3.90;99.90
9209;DHT22;4639;48.862;9.188;2023-01-24T02:39:26;3.90;99.90
9209;DHT22;4639;48.862;9.188;2023-01-24T02:42:12;3.90;99.90
9209;DHT22;4639;48.862;9.188;2023-01-24T02:47:32;3.90;99.90
9209;DHT22;4639;48.862;9.188;2023-01-24T02:50:00;3.90;99.90
9209;DHT22;4639;48.862;9.188;2023-01-24T02:52:26;3.80;99.90
9209;DHT22;4639;48.862;9.188;2023-01-24T02:55:10;3.80;99.90
9209;DHT22;4639;48.862;9.188;2023-01-24T02:57:36;3.80;99.90
9209;DHT22;4639;48.862;9.188;2023-01-24T03:00:20;3.80;99.90
9209;DHT22;4639;48.862;9.188;2023-01-24T03:02:46;3.80;99.90
9209;DHT22;4639;48.862;9.188;2023-01-24T03:05:12;3.70;99.90
9209;DHT22;4639;48.862;9.188;2023-01-24T03:07:37;3.70;99.90
9209;DHT22;4639;48.862;9.188;2023-01-24T03:10:15;3.70;99.90
9209;DHT22;4639;48.862;9.188;2023-01-24T03:12:40;3.70;99.90
9209;DHT22;4639;48.862;9.188;2023-01-24T03:15:25;3.70;99.90
9209;DHT22;4639;48.862;9.188;2023-01-24T03:18:09;3.70;99.90
9209;DHT22;4639;48.862;9.188;2023-01-24T03:20:54;3.70;99.90
9209;DHT22;4639;48.862;9.188;2023-01-24T03:23:39;3.90;99.90
9209;DHT22;4639;48.862;9.188;2023-01-24T03:26:23;3.60;99.90
9209;DHT22;4639;48.862;9.188;2023-01-24T03:29:07;3.50;99.90
9209;DHT22;4639;48.862;9.188;2023-01-24T03:31:51;3.50;99.90
9209;DHT22;4639;48.862;9.188;2023-01-24T03:34:35;3.60;99.90
9209;DHT22;4639;48.862;9.188;2023-01-24T03:37:17;3.60;99.90
9209;DHT22;4639;48.862;9.188;2023-01-24T03:40:08;3.60;99.90
9209;DHT22;4639;48.862;9.188;2023-01-24T03:42:35;3.60;99.90
9209;DHT22;4639;48.862;9.188;2023-01-24T03:45:13;3.60;99.90
9209;DHT22;4639;48.862;9.188;2023-01-24T03:47:43;3.60;99.90
9209;DHT22;4639;48.862;9.188;2023-01-24T03:50:11;3.60;99.90
9209;DHT22;4639;48.862;9.188;2023-01-24T03:52:55;3.60;99.90
9209;DHT22;4639;48.862;9.188;2023-01-24T03:55:21;3.60;99.90
9209;DHT22;4639;48.862;9.188;2023-01-24T03:57:46;3.50;99.90
9209;DHT22;4639;48.862;9.188;2023-01-24T04:00:13;3.50;99.90
9209;DHT22;4639;48.862;9.188;2023-01-24T04:02:39;3.60;99.90
9209;DHT22;4639;48.862;9.188;2023-01-24T04:05:04;3.60;99.90
9209;DHT22;4639;48.862;9.188;2023-01-24T04:07:39;3.60;99.90
9209;DHT22;4639;48.862;9.188;2023-01-24T04:10:05;3.60;99.90
9209;DHT22;4639;48.862;9.188;2023-01-24T04:12:31;3.60;99.90
9209;DHT22;4639;48.862;9.188;2023-01-24T04:14:57;3.60;99.90
9209;DHT22;4639;48.862;9.188;2023-01-24T04:17:23;3.70;99.90
9209;DHT22;4639;48.862;9.188;2023-01-24T04:19:48;3.70;99.90
9209;DHT22;4639;48.862;9.188;2023-01-24T04:22:15;3.60;99.90
9209;DHT22;4639;48.862;9.188;2023-01-24T04:24:41;3.60;99.90
9209;DHT22;4639;48.862;9.188;2023-01-24T04:27:07;3.60;99.90
9209;DHT22;4639;48.862;9.188;2023-01-24T04:29:36;3.60;99.90
9209;DHT22;4639;48.862;9.188;2023-01-24T04:32:01;3.50;99.90
9209;DHT22;4639;48.862;9.188;2023-01-24T04:34:30;3.50;99.90
9209;DHT22;4639;48.862;9.188;2023-01-24T04:36:55;3.50;99.90
9209;DHT22;4639;48.862;9.188;2023-01-24T04:39:24;3.50;99.90
9209;DHT22;4639;48.862;9.188;2023-01-24T04:41:49;3.60;99.90
9209;DHT22;4639;48.862;9.188;2023-01-24T04:44:15;3.50;99.90
9209;DHT22;4639;48.862;9.188;2023-01-24T04:46:41;3.50;99.90
9209;DHT22;4639;48.862;9.188;2023-01-24T04:49:06;3.60;99.90
9209;DHT22;4639;48.862;9.188;2023-01-24T04:51:35;3.60;99.90
9209;DHT22;4639;48.862;9.188;2023-01-24T04:54:03;3.50;99.90
9209;DHT22;4639;48.862;9.188;2023-01-24T04:56:28;3.60;99.90
9209;DHT22;4639;48.862;9.188;2023-01-24T04:58:54;3.50;99.90
9209;DHT22;4639;48.862;9.188;2023-01-24T05:01:19;3.50;99.90
9209;DHT22;4639;48.862;9.188;2023-01-24T05:03:45;3.50;99.90
9209;DHT22;4639;48.862;9.188;2023-01-24T05:06:11;3.50;99.90
9209;DHT22;4639;48.862;9.188;2023-01-24T05:08:37;3.50;99.90
9209;DHT22;4639;48.862;9.188;2023-01-24T05:11:03;3.60;99.90
9209;DHT22;4639;48.862;9.188;2023-01-24T05:13:29;3.60;99.90
9209;DHT22;4639;48.862;9.188;2023-01-24T05:15:54;3.60;99.90
9209;DHT22;4639;48.862;9.188;2023-01-24T05:18:20;3.70;99.90
9209;DHT22;4639;48.862;9.188;2023-01-24T05:20:46;3.60;99.90
9209;DHT22;4639;48.862;9.188;2023-01-24T05:23:11;3.50;99.90
9209;DHT22;4639;48.862;9.188;2023-01-24T05:25:37;3.50;99.90
9209;DHT22;4639;48.862;9.188;2023-01-24T05:28:03;3.50;99.90
9209;DHT22;4639;48.862;9.188;2023-01-24T05:30:29;3.50;99.90
9209;DHT22;4639;48.862;9.188;2023-01-24T05:32:58;3.50;99.90
9209;DHT22;4639;48.862;9.188;2023-01-24T05:35:24;3.50;99.90
9209;DHT22;4639;48.862;9.188;2023-01-24T05:37:50;3.50;99.90
9209;DHT22;4639;48.862;9.188;2023-01-24T05:40:16;3.50;99.90
9209;DHT22;4639;48.862;9.188;2023-01-24T05:42:42;3.50;99.90
9209;DHT22;4639;48.862;9.188;2023-01-24T05:45:08;3.50;99.90
9209;DHT22;4639;48.862;9.188;2023-01-24T05:47:34;3.60;99.90
9209;DHT22;4639;48.862;9.188;2023-01-24T05:50:03;3.50;99.90
9209;DHT22;4639;48.862;9.188;2023-01-24T05:52:28;3.50;99.90
9209;DHT22;4639;48.862;9.188;2023-01-24T05:54:54;3.50;99.90
9209;DHT22;4639;48.862;9.188;2023-01-24T05:57:19;3.50;99.90
9209;DHT22;4639;48.862;9.188;2023-01-24T05:59:45;3.50;99.90
9209;DHT22;4639;48.862;9.188;2023-01-24T06:02:11;3.50;99.90
9209;DHT22;4639;48.862;9.188;2023-01-24T06:04:36;3.50;99.90
9209;DHT22;4639;48.862;9.188;2023-01-24T06:07:02;3.60;99.90
9209;DHT22;4639;48.862;9.188;2023-01-24T06:09:30;3.60;99.90
9209;DHT22;4639;48.862;9.188;2023-01-24T06:11:56;3.70;99.90
9209;DHT22;4639;48.862;9.188;2023-01-24T06:14:21;3.70;99.90
9209;DHT22;4639;48.862;9.188;2023-01-24T06:16:50;3.70;99.90
9209;DHT22;4639;48.862;9.188;2023-01-24T06:19:16;3.70;99.90
9209;DHT22;4639;48.862;9.188;2023-01-24T06:21:45;3.50;99.90
9209;DHT22;4639;48.862;9.188;2023-01-24T06:24:18;3.70;99.90
9209;DHT22;4639;48.862;9.188;2023-01-24T06:26:45;3.70;99.90
9209;DHT22;4639;48.862;9.188;2023-01-24T06:29:11;3.70;99.90
9209;DHT22;4639;48.862;9.188;2023-01-24T06:39:52;3.70;99.90
9209;DHT22;4639;48.862;9.188;2023-01-24T06:42:22;3.60;99.90
9209;DHT22;4639;48.862;9.188;2023-01-24T06:44:47;3.60;99.90
9209;DHT22;4639;48.862;9.188;2023-01-24T06:47:14;3.60;99.90
9209;DHT22;4639;48.862;9.188;2023-01-24T06:49:40;3.60;99.90
9209;DHT22;4639;48.862;9.188;2023-01-24T06:52:06;3.50;99.90
9209;DHT22;4639;48.862;9.188;2023-01-24T06:54:33;3.60;99.90
9209;DHT22;4639;48.862;9.188;2023-01-24T06:56:59;3.60;99.90
9209;DHT22;4639;48.862;9.188;2023-01-24T06:59:25;3.70;99.90
9209;DHT22;4639;48.862;9.188;2023-01-24T07:01:51;3.60;99.90
9209;DHT22;4639;48.862;9.188;2023-01-24T07:04:17;3.60;99.90
9209;DHT22;4639;48.862;9.188;2023-01-24T07:06:43;3.50;99.90
9209;DHT22;4639;48.862;9.188;2023-01-24T07:09:09;3.50;99.90
9209;DHT22;4639;48.862;9.188;2023-01-24T07:11:35;3.50;99.90
9209;DHT22;4639;48.862;9.188;2023-01-24T07:14:01;3.60;99.90
9209;DHT22;4639;48.862;9.188;2023-01-24T07:16:27;3.50;99.90
9209;DHT22;4639;48.862;9.188;2023-01-24T07:18:53;3.60;99.90
9209;DHT22;4639;48.862;9.188;2023-01-24T07:21:19;3.60;99.90
9209;DHT22;4639;48.862;9.188;2023-01-24T07:23:46;3.60;99.90
9209;DHT22;4639;48.862;9.188;2023-01-24T07:26:12;3.70;99.90
9209;DHT22;4639;48.862;9.188;2023-01-24T07:28:39;3.60;99.90
9209;DHT22;4639;48.862;9.188;2023-01-24T07:31:05;3.50;99.90
9209;DHT22;4639;48.862;9.188;2023-01-24T07:33:31;3.60;99.90
9209;DHT22;4639;48.862;9.188;2023-01-24T07:35:56;3.60;99.90
9209;DHT22;4639;48.862;9.188;2023-01-24T07:38:22;3.60;99.90
9209;DHT22;4639;48.862;9.188;2023-01-24T07:40:50;3.60;99.90
9209;DHT22;4639;48.862;9.188;2023-01-24T07:43:15;3.50;99.90
9209;DHT22;4639;48.862;9.188;2023-01-24T07:45:44;3.60;99.90
9209;DHT22;4639;48.862;9.188;2023-01-24T07:48:10;3.60;99.90
9209;DHT22;4639;48.862;9.188;2023-01-24T07:50:36;3.60;99.90
9209;DHT22;4639;48.862;9.188;2023-01-24T07:53:02;3.50;99.90
9209;DHT22;4639;48.862;9.188;2023-01-24T07:55:27;3.60;99.90
9209;DHT22;4639;48.862;9.188;2023-01-24T07:58:02;3.70;99.90
9209;DHT22;4639;48.862;9.188;2023-01-24T08:00:28;3.70;99.90
9209;DHT22;4639;48.862;9.188;2023-01-24T08:02:54;3.80;99.90
9209;DHT22;4639;48.862;9.188;2023-01-24T08:05:20;3.80;99.90
9209;DHT22;4639;48.862;9.188;2023-01-24T08:07:46;3.80;99.90
9209;DHT22;4639;48.862;9.188;2023-01-24T08:10:12;3.80;99.90
9209;DHT22;4639;48.862;9.188;2023-01-24T08:12:37;3.80;99.90
9209;DHT22;4639;48.862;9.188;2023-01-24T08:15:03;3.80;99.90
9209;DHT22;4639;48.862;9.188;2023-01-24T08:17:29;3.90;99.90
9209;DHT22;4639;48.862;9.188;2023-01-24T08:19:54;3.90;99.90
9209;DHT22;4639;48.862;9.188;2023-01-24T08:22:20;3.90;99.90
9209;DHT22;4639;48.862;9.188;2023-01-24T08:24:45;4.00;99.90
9209;DHT22;4639;48.862;9.188;2023-01-24T08:27:11;3.90;99.90
9209;DHT22;4639;48.862;9.188;2023-01-24T08:29:36;3.90;99.90
9209;DHT22;4639;48.862;9.188;2023-01-24T08:32:02;3.80;99.90
9209;DHT22;4639;48.862;9.188;2023-01-24T08:34:27;3.80;99.90
9209;DHT22;4639;48.862;9.188;2023-01-24T08:36:53;3.80;99.90
9209;DHT22;4639;48.862;9.188;2023-01-24T08:39:19;3.80;99.90
9209;DHT22;4639;48.862;9.188;2023-01-24T08:41:44;3.80;99.90
9209;DHT22;4639;48.862;9.188;2023-01-24T08:44:12;3.80;99.90
9209;DHT22;4639;48.862;9.188;2023-01-24T08:46:38;3.90;99.90
9209;DHT22;4639;48.862;9.188;2023-01-24T08:49:04;3.90;99.90
9209;DHT22;4639;48.862;9.188;2023-01-24T08:51:30;3.90;99.90
9209;DHT22;4639;48.862;9.188;2023-01-24T08:53:55;3.90;99.90
9209;DHT22;4639;48.862;9.188;2023-01-24T08:56:21;3.90;99.90
9209;DHT22;4639;48.862;9.188;2023-01-24T08:58:46;3.80;99.90
9209;DHT22;4639;48.862;9.188;2023-01-24T09:01:12;3.80;99.90
9209;DHT22;4639;48.862;9.188;2023-01-24T09:03:38;3.80;99.90
9209;DHT22;4639;48.862;9.188;2023-01-24T09:06:04;3.80;99.90
9209;DHT22;4639;48.862;9.188;2023-01-24T09:08:30;3.90;99.90
9209;DHT22;4639;48.862;9.188;2023-01-24T09:11:00;3.90;99.90
9209;DHT22;4639;48.862;9.188;2023-01-24T09:13:26;3.90;99.90
9209;DHT22;4639;48.862;9.188;2023-01-24T09:15:51;3.80;99.90
9209;DHT22;4639;48.862;9.188;2023-01-24T09:18:17;3.80;99.90
9209;DHT22;4639;48.862;9.188;2023-01-24T09:20:43;3.80;99.90
9209;DHT22;4639;48.862;9.188;2023-01-24T09:23:13;3.80;99.90
9209;DHT22;4639;48.862;9.188;2023-01-24T09:25:41;3.80;99.90
9209;DHT22;4639;48.862;9.188;2023-01-24T09:28:07;3.90;99.90
9209;DHT22;4639;48.862;9.188;2023-01-24T09:30:33;3.90;99.90
9209;DHT22;4639;48.862;9.188;2023-01-24T09:33:06;3.90;99.90
9209;DHT22;4639;48.862;9.188;2023-01-24T09:35:31;4.00;99.90
9209;DHT22;4639;48.862;9.188;2023-01-24T09:37:57;4.00;99.90
9209;DHT22;4639;48.862;9.188;2023-01-24T09:40:28;4.10;99.90
9209;DHT22;4639;48.862;9.188;2023-01-24T09:43:03;4.20;99.90
9209;DHT22;4639;48.862;9.188;2023-01-24T09:45:33;4.30;99.90
9209;DHT22;4639;48.862;9.188;2023-01-24T09:48:02;4.40;99.90
9209;DHT22;4639;48.862;9.188;2023-01-24T09:50:38;4.30;99.90
9209;DHT22;4639;48.862;9.188;2023-01-24T09:53:14;4.30;99.90
9209;DHT22;4639;48.862;9.188;2023-01-24T09:55:41;4.30;99.90
9209;DHT22;4639;48.862;9.188;2023-01-24T09:58:27;4.20;99.90
9209;DHT22;4639;48.862;9.188;2023-01-24T10:01:05;4.20;99.90
9209;DHT22;4639;48.862;9.188;2023-01-24T10:03:34;4.30;99.90
9209;DHT22;4639;48.862;9.188;2023-01-24T10:06:14;4.40;99.90
9209;DHT22;4639;48.862;9.188;2023-01-24T10:17:29;4.20;99.90
9209;DHT22;4639;48.862;9.188;2023-01-24T10:20:19;4.10;99.90
9209;DHT22;4639;48.862;9.188;2023-01-24T10:23:20;4.20;99.90
9209;DHT22;4639;48.862;9.188;2023-01-24T10:25:58;4.20;99.90
9209;DHT22;4639;48.862;9.188;2023-01-24T10:28:37;4.30;99.90
9209;DHT22;4639;48.862;9.188;2023-01-24T10:31:27;4.30;99.90
9209;DHT22;4639;48.862;9.188;2023-01-24T10:34:10;4.30;99.90
9209;DHT22;4639;48.862;9.188;2023-01-24T10:36:45;4.20;99.90
9209;DHT22;4639;48.862;9.188;2023-01-24T10:39:13;4.20;99.90
9209;DHT22;4639;48.862;9.188;2023-01-24T10:41:40;4.20;99.90
9209;DHT22;4639;48.862;9.188;2023-01-24T10:44:18;4.20;99.90
9209;DHT22;4639;48.862;9.188;2023-01-24T10:47:21;4.40;99.90
9209;DHT22;4639;48.862;9.188;2023-01-24T10:50:01;4.50;99.90
9209;DHT22;4639;48.862;9.188;2023-01-24T10:52:27;4.50;99.90
9209;DHT22;4639;48.862;9.188;2023-01-24T10:54:55;4.50;99.90
9209;DHT22;4639;48.862;9.188;2023-01-24T11:00:27;4.50;99.90
9209;DHT22;4639;48.862;9.188;2023-01-24T11:02:58;4.60;99.90
9209;DHT22;4639;48.862;9.188;2023-01-24T11:05:25;4.60;99.90
9209;DHT22;4639;48.862;9.188;2023-01-24T11:08:00;4.60;99.90
9209;DHT22;4639;48.862;9.188;2023-01-24T11:10:28;4.60;99.90
9209;DHT22;4639;48.862;9.188;2023-01-24T11:13:00;4.60;99.90
9209;DHT22;4639;48.862;9.188;2023-01-24T11:15:28;4.50;99.90
9209;DHT22;4639;48.862;9.188;2023-01-24T11:18:04;4.60;99.90
9209;DHT22;4639;48.862;9.188;2023-01-24T11:20:32;4.60;99.90
9209;DHT22;4639;48.862;9.188;2023-01-24T11:23:12;4.70;99.90
9209;DHT22;4639;48.862;9.188;2023-01-24T11:28:28;4.70;99.90
9209;DHT22;4639;48.862;9.188;2023-01-24T11:30:58;4.80;99.90
9209;DHT22;4639;48.862;9.188;2023-01-24T11:36:06;4.80;99.90
9209;DHT22;4639;48.862;9.188;2023-01-24T11:38:45;4.90;99.90
9209;DHT22;4639;48.862;9.188;2023-01-24T11:41:26;4.90;99.90
9209;DHT22;4639;48.862;9.188;2023-01-24T11:49:36;4.70;99.90
9209;DHT22;4639;48.862;9.188;2023-01-24T11:54:57;4.70;99.90
9209;DHT22;4639;48.862;9.188;2023-01-24T11:57:51;4.70;99.90
9209;DHT22;4639;48.862;9.188;2023-01-24T12:03:09;4.70;99.90
9209;DHT22;4639;48.862;9.188;2023-01-24T12:06:13;4.80;99.90
9209;DHT22;4639;48.862;9.188;2023-01-24T12:09:25;4.80;99.90
9209;DHT22;4639;48.862;9.188;2023-01-24T12:11:43;4.90;99.90
9209;DHT22;4639;48.862;9.188;2023-01-24T12:17:24;4.80;99.90
9209;DHT22;4639;48.862;9.188;2023-01-24T12:22:56;4.70;99.90
9209;DHT22;4639;48.862;9.188;2023-01-24T12:25:27;4.70;99.90
9209;DHT22;4639;48.862;9.188;2023-01-24T12:27:59;4.60;99.90
9209;DHT22;4639;48.862;9.188;2023-01-24T12:30:44;4.60;99.90
9209;DHT22;4639;48.862;9.188;2023-01-24T12:35:55;4.70;99.90
9209;DHT22;4639;48.862;9.188;2023-01-24T12:43:58;4.60;99.90
9209;DHT22;4639;48.862;9.188;2023-01-24T12:46:35;4.70;99.90
9209;DHT22;4639;48.862;9.188;2023-01-24T12:49:38;4.70;99.90
9209;DHT22;4639;48.862;9.188;2023-01-24T12:52:23;4.70;99.90
9209;DHT22;4639;48.862;9.188;2023-01-24T12:54:58;4.70;99.90
9209;DHT22;4639;48.862;9.188;2023-01-24T13:00:22;4.70;99.90
9209;DHT22;4639;48.862;9.188;2023-01-24T13:05:36;4.60;99.90
9209;DHT22;4639;48.862;9.188;2023-01-24T13:08:28;4.60;99.90
9209;DHT22;4639;48.862;9.188;2023-01-24T13:11:21;4.70;99.90
9209;DHT22;4639;48.862;9.188;2023-01-24T13:25:28;4.70;99.90
9209;DHT22;4639;48.862;9.188;2023-01-24T13:33:04;4.90;99.90
9209;DHT22;4639;48.862;9.188;2023-01-24T13:35:31;4.80;99.90
9209;DHT22;4639;48.862;9.188;2023-01-24T13:38:16;4.70;99.90
9209;DHT22;4639;48.862;9.188;2023-01-24T13:41:02;4.70;99.90
9209;DHT22;4639;48.862;9.188;2023-01-24T13:46:13;4.70;99.90
9209;DHT22;4639;48.862;9.188;2023-01-24T13:48:42;4.90;99.90
9209;DHT22;4639;48.862;9.188;2023-01-24T13:51:22;4.90;99.90
9209;DHT22;4639;48.862;9.188;2023-01-24T13:54:04;5.00;99.90
9209;DHT22;4639;48.862;9.188;2023-01-24T13:56:31;4.90;99.90
9209;DHT22;4639;48.862;9.188;2023-01-24T13:58:57;4.80;99.90
9209;DHT22;4639;48.862;9.188;2023-01-24T14:01:23;4.80;99.90
9209;DHT22;4639;48.862;9.188;2023-01-24T14:04:00;4.90;99.90
9209;DHT22;4639;48.862;9.188;2023-01-24T14:06:42;4.90;99.90
9209;DHT22;4639;48.862;9.188;2023-01-24T14:09:26;5.00;99.90
9209;DHT22;4639;48.862;9.188;2023-01-24T14:12:01;5.00;99.90
9209;DHT22;4639;48.862;9.188;2023-01-24T14:14:34;5.00;99.90
9209;DHT22;4639;48.862;9.188;2023-01-24T14:17:04;5.00;99.90
9209;DHT22;4639;48.862;9.188;2023-01-24T14:19:36;4.90;99.90
9209;DHT22;4639;48.862;9.188;2023-01-24T14:24:59;4.90;99.90
9209;DHT22;4639;48.862;9.188;2023-01-24T14:27:45;4.90;99.90
9209;DHT22;4639;48.862;9.188;2023-01-24T14:37:42;4.70;99.90
9209;DHT22;4639;48.862;9.188;2023-01-24T14:40:22;4.80;99.90
9209;DHT22;4639;48.862;9.188;2023-01-24T14:43:02;4.90;99.90
9209;DHT22;4639;48.862;9.188;2023-01-24T14:45:31;5.00;99.90
9209;DHT22;4639;48.862;9.188;2023-01-24T14:47:59;5.00;99.90
9209;DHT22;4639;48.862;9.188;2023-01-24T14:50:27;4.90;99.90
9209;DHT22;4639;48.862;9.188;2023-01-24T14:52:54;4.80;99.90
9209;DHT22;4639;48.862;9.188;2023-01-24T14:57:52;4.70;99.90
9209;DHT22;4639;48.862;9.188;2023-01-24T15:00:19;4.70;99.90
9209;DHT22;4639;48.862;9.188;2023-01-24T15:03:01;4.70;99.90
9209;DHT22;4639;48.862;9.188;2023-01-24T15:05:29;4.60;99.90
9209;DHT22;4639;48.862;9.188;2023-01-24T15:07:56;4.60;99.90
9209;DHT22;4639;48.862;9.188;2023-01-24T15:10:24;4.60;99.90
9209;DHT22;4639;48.862;9.188;2023-01-24T15:13:26;4.60;99.90
9209;DHT22;4639;48.862;9.188;2023-01-24T15:15:54;4.70;99.90
9209;DHT22;4639;48.862;9.188;2023-01-24T15:19:22;4.70;99.90
9209;DHT22;4639;48.862;9.188;2023-01-24T15:21:34;4.70;99.90
9209;DHT22;4639;48.862;9.188;2023-01-24T15:24:02;4.70;99.90
9209;DHT22;4639;48.862;9.188;2023-01-24T15:28:53;4.60;99.90
9209;DHT22;4639;48.862;9.188;2023-01-24T15:31:21;4.50;99.90
9209;DHT22;4639;48.862;9.188;2023-01-24T15:33:57;4.60;99.90
9209;DHT22;4639;48.862;9.188;2023-01-24T15:36:28;4.50;99.90
9209;DHT22;4639;48.862;9.188;2023-01-24T15:38:56;4.40;99.90
9209;DHT22;4639;48.862;9.188;2023-01-24T15:41:48;4.50;99.90
9209;DHT22;4639;48.862;9.188;2023-01-24T15:44:32;4.50;99.90
9209;DHT22;4639;48.862;9.188;2023-01-24T15:46:58;4.40;99.90
9209;DHT22;4639;48.862;9.188;2023-01-24T15:50:02;4.40;99.90
9209;DHT22;4639;48.862;9.188;2023-01-24T15:53:24;4.50;99.90
9209;DHT22;4639;48.862;9.188;2023-01-24T15:55:52;4.50;99.90
9209;DHT22;4639;48.862;9.188;2023-01-24T15:58:18;4.40;99.90
9209;DHT22;4639;48.862;9.188;2023-01-24T16:00:54;4.40;99.90
9209;DHT22;4639;48.862;9.188;2023-01-24T16:03:20;4.40;99.90
9209;DHT22;4639;48.862;9.188;2023-01-24T16:05:46;4.40;99.90
9209;DHT22;4639;48.862;9.188;2023-01-24T16:08:12;4.40;99.90
9209;DHT22;4639;48.862;9.188;2023-01-24T16:10:37;4.30;99.90
9209;DHT22;4639;48.862;9.188;2023-01-24T16:13:04;4.30;99.90
9209;DHT22;4639;48.862;9.188;2023-01-24T16:15:30;4.30;99.90
9209;DHT22;4639;48.862;9.188;2023-01-24T16:17:56;4.30;99.90
9209;DHT22;4639;48.862;9.188;2023-01-24T16:20:26;4.40;99.90
9209;DHT22;4639;48.862;9.188;2023-01-24T16:22:53;4.50;99.90
9209;DHT22;4639;48.862;9.188;2023-01-24T16:25:20;4.40;99.90
9209;DHT22;4639;48.862;9.188;2023-01-24T16:27:46;4.40;99.90
9209;DHT22;4639;48.862;9.188;2023-01-24T16:30:22;4.50;99.90
9209;DHT22;4639;48.862;9.188;2023-01-24T16:32:49;4.50;99.90
9209;DHT22;4639;48.862;9.188;2023-01-24T16:35:15;4.50;99.90
9209;DHT22;4639;48.862;9.188;2023-01-24T16:37:40;4.60;99.90
9209;DHT22;4639;48.862;9.188;2023-01-24T16:40:10;4.60;99.90
9209;DHT22;4639;48.862;9.188;2023-01-24T16:42:39;4.60;99.90
9209;DHT22;4639;48.862;9.188;2023-01-24T16:45:05;4.50;99.90
9209;DHT22;4639;48.862;9.188;2023-01-24T16:47:32;4.40;99.90
9209;DHT22;4639;48.862;9.188;2023-01-24T16:49:57;4.30;99.90
9209;DHT22;4639;48.862;9.188;2023-01-24T16:52:25;4.30;99.90
9209;DHT22;4639;48.862;9.188;2023-01-24T16:54:51;4.30;99.90
9209;DHT22;4639;48.862;9.188;2023-01-24T16:57:17;4.20;99.90
9209;DHT22;4639;48.862;9.188;2023-01-24T16:59:44;4.20;99.90
9209;DHT22;4639;48.862;9.188;2023-01-24T17:02:11;4.30;99.90
9209;DHT22;4639;48.862;9.188;2023-01-24T17:04:37;4.30;99.90
9209;DHT22;4639;48.862;9.188;2023-01-24T17:07:02;4.30;99.90
9209;DHT22;4639;48.862;9.188;2023-01-24T17:09:32;4.30;99.90
9209;DHT22;4639;48.862;9.188;2023-01-24T17:11:58;4.50;99.90
9209;DHT22;4639;48.862;9.188;2023-01-24T17:14:24;4.40;99.90
9209;DHT22;4639;48.862;9.188;2023-01-24T17:16:49;4.30;99.90
9209;DHT22;4639;48.862;9.188;2023-01-24T17:19:15;4.20;99.90
9209;DHT22;4639;48.862;9.188;2023-01-24T17:21:42;4.20;99.90
9209;DHT22;4639;48.862;9.188;2023-01-24T17:24:07;4.20;99.90
9209;DHT22;4639;48.862;9.188;2023-01-24T17:26:33;4.20;99.90
9209;DHT22;4639;48.862;9.188;2023-01-24T17:28:59;4.10;99.90
9209;DHT22;4639;48.862;9.188;2023-01-24T17:31:24;4.10;99.90
9209;DHT22;4639;48.862;9.188;2023-01-24T17:33:52;4.00;99.90
9209;DHT22;4639;48.862;9.188;2023-01-24T17:36:18;4.10;99.90
9209;DHT22;4639;48.862;9.188;2023-01-24T17:38:43;4.10;99.90
9209;DHT22;4639;48.862;9.188;2023-01-24T17:41:14;4.00;99.90
9209;DHT22;4639;48.862;9.188;2023-01-24T17:43:40;4.10;99.90
9209;DHT22;4639;48.862;9.188;2023-01-24T17:46:06;4.00;99.90
9209;DHT22;4639;48.862;9.188;2023-01-24T17:48:31;4.10;99.90
9209;DHT22;4639;48.862;9.188;2023-01-24T17:50:57;4.10;99.90
9209;DHT22;4639;48.862;9.188;2023-01-24T17:53:23;4.10;99.90
9209;DHT22;4639;48.862;9.188;2023-01-24T17:55:53;4.10;99.90
9209;DHT22;4639;48.862;9.188;2023-01-24T17:58:20;4.10;99.90
9209;DHT22;4639;48.862;9.188;2023-01-24T18:00:45;4.10;99.90
9209;DHT22;4639;48.862;9.188;2023-01-24T18:03:11;4.10;99.90
9209;DHT22;4639;48.862;9.188;2023-01-24T18:05:39;4.10;99.90
9209;DHT22;4639;48.862;9.188;2023-01-24T18:08:06;4.10;99.90
9209;DHT22;4639;48.862;9.188;2023-01-24T18:10:31;4.10;99.90
9209;DHT22;4639;48.862;9.188;2023-01-24T18:12:57;4.10;99.90
9209;DHT22;4639;48.862;9.188;2023-01-24T18:15:22;4.00;99.90
9209;DHT22;4639;48.862;9.188;2023-01-24T18:17:48;4.00;99.90